^^
Daily Summary for June 18, 2021 Units:  English    Metric   Both
Daily Weekly Monthly Yearly Custom
  High: Low: Average:
Temperature: 108.0 °F 70.0 °F 88.1 °F
Dew Point: 53.0 °F 34.0 °F 43.6 °F
Humidity: 44% 8% 24%
Wind Speed: 18mph 0mph 3.1mph
Wind Gust: 17mph - -
Wind- - South
Pressure: 29.8 in 29.7 in -
Precipitation: 0.000 in    
Historical Graphs
 
 
Tabular Data for June 18, 2021
Time Temperature Dew Point Pressure Wind Wind Speed Wind Gust Humidity Rainfall Rate (Hourly) solar
00:04 76.0 °F 38.0 °F 29.8 in Calm     26% 0.000 in 0.00 W/m2
00:09 75.0 °F 39.0 °F 29.8 in Calm     27% 0.000 in 0.00 W/m2
00:14 75.0 °F 38.0 °F 29.8 in Calm     26% 0.000 in 0.00 W/m2
00:19 75.0 °F 39.0 °F 29.8 in Calm     27% 0.000 in 0.00 W/m2
00:24 75.0 °F 39.0 °F 29.8 in Calm     27% 0.000 in 0.00 W/m2
00:29 75.0 °F 39.0 °F 29.8 in Calm     28% 0.000 in 0.00 W/m2
00:34 75.0 °F 39.0 °F 29.8 in Calm     28% 0.000 in 0.00 W/m2
00:39 75.0 °F 39.0 °F 29.8 in SSW 2 mph   28% 0.000 in 0.00 W/m2
00:44 74.0 °F 40.0 °F 29.8 in SSW 2 mph 2 mph 29% 0.000 in 0.00 W/m2
00:49 74.0 °F 39.0 °F 29.8 in SE 4 mph 2 mph 28% 0.000 in 0.00 W/m2
00:54 74.0 °F 40.0 °F 29.8 in ESE 2 mph 3 mph 29% 0.000 in 0.00 W/m2
00:59 74.0 °F 42.0 °F 29.8 in Calm   2 mph 31% 0.000 in 0.00 W/m2
01:04 74.0 °F 42.0 °F 29.8 in Calm     31% 0.000 in 0.00 W/m2
01:09 74.0 °F 40.0 °F 29.8 in ESE 2 mph   29% 0.000 in 0.00 W/m2
01:14 74.0 °F 40.0 °F 29.8 in Calm   2 mph 30% 0.000 in 0.00 W/m2
01:19 74.0 °F 40.0 °F 29.8 in ESE 2 mph   30% 0.000 in 0.00 W/m2
01:24 74.0 °F 40.0 °F 29.8 in Calm   2 mph 30% 0.000 in 0.00 W/m2
01:29 74.0 °F 40.0 °F 29.8 in Calm     30% 0.000 in 0.00 W/m2
01:34 73.0 °F 41.0 °F 29.8 in Calm     31% 0.000 in 0.00 W/m2
01:39 73.0 °F 40.0 °F 29.8 in Calm     30% 0.000 in 0.00 W/m2
01:44 73.0 °F 40.0 °F 29.8 in Calm     30% 0.000 in 0.00 W/m2
01:49 73.0 °F 41.0 °F 29.8 in Calm     32% 0.000 in 0.00 W/m2
01:54 73.0 °F 42.0 °F 29.8 in Calm     33% 0.000 in 0.00 W/m2
01:59 73.0 °F 41.0 °F 29.8 in Calm     32% 0.000 in 0.00 W/m2
02:04 73.0 °F 41.0 °F 29.8 in Calm     32% 0.000 in 0.00 W/m2
02:09 73.0 °F 41.0 °F 29.8 in Calm     31% 0.000 in 0.00 W/m2
02:14 73.0 °F 40.0 °F 29.8 in Calm     31% 0.000 in 0.00 W/m2
02:19 73.0 °F 41.0 °F 29.8 in Calm     32% 0.000 in 0.00 W/m2
02:24 73.0 °F 41.0 °F 29.8 in Calm     32% 0.000 in 0.00 W/m2
02:29 73.0 °F 41.0 °F 29.8 in ESE 2 mph   32% 0.000 in 0.00 W/m2
02:34 72.0 °F 41.0 °F 29.8 in ESE 2 mph 2 mph 32% 0.000 in 0.00 W/m2
02:39 72.0 °F 41.0 °F 29.8 in ESE 2 mph   32% 0.000 in 0.00 W/m2
02:44 72.0 °F 41.0 °F 29.8 in ESE 2 mph 2 mph 32% 0.000 in 0.00 W/m2
02:49 72.0 °F 41.0 °F 29.8 in ESE 2 mph   32% 0.000 in 0.00 W/m2
02:53 72.0 °F 41.0 °F 29.8 in Calm   2 mph 33% 0.000 in 0.00 W/m2
02:59 72.0 °F 40.0 °F 29.8 in Calm     32% 0.000 in 0.00 W/m2
03:04 72.0 °F 40.0 °F 29.8 in ESE 2 mph   32% 0.000 in 0.00 W/m2
03:09 72.0 °F 41.0 °F 29.8 in Calm   2 mph 33% 0.000 in 0.00 W/m2
03:14 72.0 °F 41.0 °F 29.8 in ESE 2 mph   33% 0.000 in 0.00 W/m2
03:19 72.0 °F 40.0 °F 29.8 in ESE 2 mph 2 mph 32% 0.000 in 0.00 W/m2
03:24 72.0 °F 41.0 °F 29.8 in Calm   2 mph 33% 0.000 in 0.00 W/m2
03:29 72.0 °F 42.0 °F 29.8 in Calm     34% 0.000 in 0.00 W/m2
03:34 71.0 °F 41.0 °F 29.8 in Calm     33% 0.000 in 0.00 W/m2
03:39 71.0 °F 40.0 °F 29.8 in Calm     32% 0.000 in 0.00 W/m2
03:44 71.0 °F 41.0 °F 29.8 in Calm     33% 0.000 in 0.00 W/m2
03:49 71.0 °F 41.0 °F 29.8 in Calm     33% 0.000 in 0.00 W/m2
03:54 71.0 °F 41.0 °F 29.8 in ESE 2 mph   33% 0.000 in 0.00 W/m2
03:59 71.0 °F 41.0 °F 29.8 in Calm   2 mph 33% 0.000 in 0.00 W/m2
04:04 71.0 °F 42.0 °F 29.8 in Calm     35% 0.000 in 0.00 W/m2
04:09 71.0 °F 42.0 °F 29.8 in Calm     35% 0.000 in 0.00 W/m2
04:14 71.0 °F 41.0 °F 29.8 in Calm     33% 0.000 in 0.00 W/m2
04:19 71.0 °F 41.0 °F 29.8 in East 2 mph 1 mph 33% 0.000 in 0.00 W/m2
04:24 71.0 °F 41.0 °F 29.8 in Calm   2 mph 34% 0.000 in 0.00 W/m2
04:29 71.0 °F 41.0 °F 29.8 in East 2 mph 1 mph 34% 0.000 in 0.00 W/m2
04:34 71.0 °F 41.0 °F 29.8 in Calm   2 mph 33% 0.000 in 0.00 W/m2
04:39 71.0 °F 41.0 °F 29.8 in Calm     33% 0.000 in 0.00 W/m2
04:44 71.0 °F 41.0 °F 29.8 in Calm     33% 0.000 in 0.00 W/m2
04:49 71.0 °F 40.0 °F 29.8 in Calm     33% 0.000 in 0.00 W/m2
04:54 71.0 °F 40.0 °F 29.8 in East 2 mph   33% 0.000 in 0.00 W/m2
04:59 71.0 °F 40.0 °F 29.8 in Calm   2 mph 33% 0.000 in 0.00 W/m2
05:04 71.0 °F 40.0 °F 29.8 in Calm     33% 0.000 in 0.00 W/m2
05:09 71.0 °F 40.0 °F 29.8 in East 4 mph 1 mph 33% 0.000 in 0.00 W/m2
05:14 71.0 °F 40.0 °F 29.8 in NE 4 mph 3 mph 33% 0.000 in 0.00 W/m2
05:19 71.0 °F 40.0 °F 29.8 in NE 2 mph 3 mph 33% 0.000 in 0.00 W/m2
05:24 70.0 °F 40.0 °F 29.8 in Calm   2 mph 33% 0.000 in 0.00 W/m2
05:29 70.0 °F 40.0 °F 29.8 in Calm     33% 0.000 in 0.00 W/m2
05:34 70.0 °F 40.0 °F 29.8 in Calm     33% 0.000 in 0.00 W/m2
05:39 70.0 °F 41.0 °F 29.8 in NE 2 mph   34% 0.000 in 0.00 W/m2
05:44 70.0 °F 40.0 °F 29.8 in NE 2 mph 2 mph 34% 0.000 in 0.00 W/m2
05:49 70.0 °F 40.0 °F 29.8 in NE 2 mph 2 mph 34% 0.000 in 5.00 W/m2
05:54 70.0 °F 40.0 °F 29.8 in Calm   2 mph 34% 0.000 in 5.00 W/m2
05:59 70.0 °F 40.0 °F 29.8 in Calm     34% 0.000 in 7.00 W/m2
06:04 70.0 °F 40.0 °F 29.8 in Calm     34% 0.000 in 9.00 W/m2
06:09 70.0 °F 40.0 °F 29.8 in Calm     34% 0.000 in 9.00 W/m2
06:14 70.0 °F 42.0 °F 29.8 in Calm     36% 0.000 in 11.00 W/m2
06:19 70.0 °F 43.0 °F 29.8 in Calm     38% 0.000 in 11.00 W/m2
06:24 70.0 °F 43.0 °F 29.8 in Calm     38% 0.000 in 12.00 W/m2
06:29 70.0 °F 43.0 °F 29.8 in Calm     37% 0.000 in 12.00 W/m2
06:34 70.0 °F 43.0 °F 29.8 in Calm     37% 0.000 in 14.00 W/m2
06:39 70.0 °F 43.0 °F 29.8 in Calm     38% 0.000 in 16.00 W/m2
06:44 70.0 °F 43.0 °F 29.8 in Calm     38% 0.000 in 18.00 W/m2
06:49 70.0 °F 45.0 °F 29.8 in Calm     40% 0.000 in 18.00 W/m2
06:54 71.0 °F 44.0 °F 29.8 in Calm     39% 0.000 in 19.00 W/m2
06:59 71.0 °F 45.0 °F 29.8 in Calm     40% 0.000 in 19.00 W/m2
07:04 71.0 °F 45.0 °F 29.8 in Calm     40% 0.000 in 21.00 W/m2
07:09 71.0 °F 46.0 °F 29.8 in Calm     41% 0.000 in 23.00 W/m2
07:14 71.0 °F 46.0 °F 29.8 in Calm     41% 0.000 in 23.00 W/m2
07:19 71.0 °F 46.0 °F 29.8 in Calm     41% 0.000 in 25.00 W/m2
07:24 71.0 °F 47.0 °F 29.8 in Calm     42% 0.000 in 25.00 W/m2
07:29 72.0 °F 46.0 °F 29.8 in Calm     40% 0.000 in 26.00 W/m2
07:34 72.0 °F 46.0 °F 29.8 in Calm     40% 0.000 in 28.00 W/m2
07:39 72.0 °F 47.0 °F 29.8 in Calm     41% 0.000 in 30.00 W/m2
07:44 72.0 °F 48.0 °F 29.8 in Calm     42% 0.000 in 30.00 W/m2
07:49 72.0 °F 49.0 °F 29.8 in NE 2 mph   43% 0.000 in 33.00 W/m2
07:54 73.0 °F 49.0 °F 29.8 in Calm   2 mph 44% 0.000 in 39.00 W/m2
07:59 73.0 °F 49.0 °F 29.8 in NE 2 mph   43% 0.000 in 39.00 W/m2
08:04 74.0 °F 49.0 °F 29.8 in Calm   2 mph 42% 0.000 in 39.00 W/m2
08:09 74.0 °F 50.0 °F 29.8 in Calm     43% 0.000 in 149.00 W/m2
08:14 75.0 °F 51.0 °F 29.8 in Calm     43% 0.000 in 42.00 W/m2
08:19 75.0 °F 51.0 °F 29.8 in Calm     43% 0.000 in 44.00 W/m2
08:24 76.0 °F 50.0 °F 29.8 in Calm     41% 0.000 in 67.00 W/m2
08:29 76.0 °F 51.0 °F 29.8 in Calm     42% 0.000 in 130.00 W/m2
08:34 77.0 °F 51.0 °F 29.8 in NE 2 mph   41% 0.000 in 125.00 W/m2
08:39 78.0 °F 51.0 °F 29.8 in NE 2 mph 2 mph 40% 0.000 in 116.00 W/m2
08:44 79.0 °F 52.0 °F 29.8 in Calm   2 mph 40% 0.000 in 527.00 W/m2
08:49 79.0 °F 52.0 °F 29.8 in Calm     40% 0.000 in 541.00 W/m2
08:54 80.0 °F 52.0 °F 29.8 in Calm     38% 0.000 in 557.00 W/m2
08:59 81.0 °F 52.0 °F 29.8 in Calm     37% 0.000 in 573.00 W/m2
09:04 82.0 °F 53.0 °F 29.8 in Calm     37% 0.000 in 585.00 W/m2
09:09 83.0 °F 52.0 °F 29.8 in Calm     35% 0.000 in 599.00 W/m2
09:14 83.0 °F 53.0 °F 29.8 in Calm     35% 0.000 in 613.00 W/m2
09:19 84.0 °F 51.0 °F 29.8 in Calm     33% 0.000 in 622.00 W/m2
09:24 85.0 °F 52.0 °F 29.8 in Calm     33% 0.000 in 638.00 W/m2
09:29 86.0 °F 49.0 °F 29.8 in Calm     28% 0.000 in 652.00 W/m2
09:34 87.0 °F 51.0 °F 29.8 in NE 2 mph 2 mph 29% 0.000 in 668.00 W/m2
09:39 89.0 °F 50.0 °F 29.8 in Calm   2 mph 27% 0.000 in 682.00 W/m2
09:44 89.0 °F 49.0 °F 29.8 in NE 2 mph   26% 0.000 in 693.00 W/m2
09:49 90.0 °F 49.0 °F 29.8 in NNW 2 mph 2 mph 25% 0.000 in 701.00 W/m2
09:54 91.0 °F 49.0 °F 29.8 in West 2 mph 2 mph 24% 0.000 in 717.00 W/m2
09:59 92.0 °F 48.0 °F 29.8 in SSW 2 mph 2 mph 23% 0.000 in 729.00 W/m2
10:04 93.0 °F 48.0 °F 29.8 in SSW 2 mph 2 mph 22% 0.000 in 749.00 W/m2
10:09 93.0 °F 49.0 °F 29.8 in SW 4 mph 2 mph 22% 0.000 in 761.00 W/m2
10:14 94.0 °F 49.0 °F 29.8 in SW 2 mph 3 mph 22% 0.000 in 772.00 W/m2
10:19 94.0 °F 49.0 °F 29.8 in Calm   2 mph 22% 0.000 in 782.00 W/m2
10:24 95.0 °F 50.0 °F 29.8 in ESE 2 mph 2 mph 22% 0.000 in 798.00 W/m2
10:29 95.0 °F 50.0 °F 29.8 in SSE 2 mph 2 mph 22% 0.000 in 802.00 W/m2
10:34 96.0 °F 51.0 °F 29.8 in SSW 2 mph 2 mph 22% 0.000 in 810.00 W/m2
10:39 96.0 °F 51.0 °F 29.8 in SE 2 mph 2 mph 22% 0.000 in 819.00 W/m2
10:44 96.0 °F 51.0 °F 29.8 in SSW 4 mph 2 mph 22% 0.000 in 835.00 W/m2
10:49 97.0 °F 50.0 °F 29.8 in WSW 2 mph 3 mph 21% 0.000 in 840.00 W/m2
10:54 97.0 °F 51.0 °F 29.8 in SW 2 mph 2 mph 21% 0.000 in 849.00 W/m2
10:59 97.0 °F 52.0 °F 29.8 in South 2 mph 2 mph 22% 0.000 in 860.00 W/m2
11:04 97.0 °F 51.0 °F 29.8 in SW 6 mph 5 mph 21% 0.000 in 870.00 W/m2
11:09 98.0 °F 48.0 °F 29.8 in SW 6 mph 6 mph 19% 0.000 in 875.00 W/m2
11:14 98.0 °F 49.0 °F 29.8 in SSE 4 mph 6 mph 19% 0.000 in 886.00 W/m2
11:19 98.0 °F 49.0 °F 29.8 in SSE 4 mph 2 mph 19% 0.000 in 896.00 W/m2
11:24 99.0 °F 46.0 °F 29.8 in SW 2 mph 3 mph 17% 0.000 in 904.00 W/m2
11:29 99.0 °F 46.0 °F 29.8 in SE 7 mph 2 mph 17% 0.000 in 912.00 W/m2
11:34 99.0 °F 46.0 °F 29.8 in SSW 7 mph 7 mph 17% 0.000 in 919.00 W/m2
11:39 99.0 °F 44.0 °F 29.8 in SSW 7 mph 6 mph 15% 0.000 in 919.00 W/m2
11:44 100.0 °F 44.0 °F 29.8 in SW 6 mph 7 mph 15% 0.000 in 928.00 W/m2
11:49 100.0 °F 45.0 °F 29.8 in SSE 5 mph 3 mph 16% 0.000 in 932.00 W/m2
11:54 100.0 °F 46.0 °F 29.8 in WSW 7 mph 6 mph 16% 0.000 in 937.00 W/m2
11:59 100.0 °F 49.0 °F 29.8 in SW 7 mph 7 mph 18% 0.000 in 937.00 W/m2
12:04 100.0 °F 44.0 °F 29.8 in SW 6 mph 7 mph 15% 0.000 in 942.00 W/m2
12:09 100.0 °F 44.0 °F 29.8 in East 4 mph 6 mph 15% 0.000 in 947.00 W/m2
12:14 101.0 °F 46.0 °F 29.8 in SSE 9 mph 7 mph 16% 0.000 in 951.00 W/m2
12:19 101.0 °F 43.0 °F 29.8 in SE 4 mph 9 mph 14% 0.000 in 956.00 W/m2
12:24 101.0 °F 43.0 °F 29.8 in SE 2 mph 3 mph 14% 0.000 in 958.00 W/m2
12:29 102.0 °F 44.0 °F 29.8 in SSE 4 mph 2 mph 14% 0.000 in 958.00 W/m2
12:34 102.0 °F 44.0 °F 29.8 in South 7 mph 3 mph 14% 0.000 in 962.00 W/m2
12:39 102.0 °F 44.0 °F 29.8 in SE 6 mph 7 mph 14% 0.000 in 960.00 W/m2
12:44 102.0 °F 46.0 °F 29.8 in West 2 mph 6 mph 15% 0.000 in 962.00 W/m2
12:49 102.0 °F 42.0 °F 29.8 in South 11 mph 4 mph 13% 0.000 in 962.00 W/m2
12:54 103.0 °F 44.0 °F 29.8 in SSW 4 mph 10 mph 14% 0.000 in 962.00 W/m2
12:59 103.0 °F 44.0 °F 29.8 in SSE 9 mph 9 mph 14% 0.000 in 960.00 W/m2
13:04 103.0 °F 46.0 °F 29.8 in South 4 mph 9 mph 15% 0.000 in 956.00 W/m2
13:09 103.0 °F 48.0 °F 29.8 in SE 7 mph 5 mph 16% 0.000 in 958.00 W/m2
13:14 103.0 °F 45.0 °F 29.8 in South 7 mph 7 mph 14% 0.000 in 956.00 W/m2
13:19 103.0 °F 47.0 °F 29.8 in South 9 mph 9 mph 15% 0.000 in 954.00 W/m2
13:24 104.0 °F 47.0 °F 29.8 in SSE 4 mph 9 mph 15% 0.000 in 953.00 W/m2
13:29 104.0 °F 44.0 °F 29.8 in East 4 mph 3 mph 13% 0.000 in 949.00 W/m2
13:34 105.0 °F 48.0 °F 29.8 in SE 7 mph 5 mph 15% 0.000 in 946.00 W/m2
13:39 105.0 °F 42.0 °F 29.8 in WSW 7 mph 7 mph 12% 0.000 in 946.00 W/m2
13:44 105.0 °F 44.0 °F 29.8 in West 7 mph 7 mph 13% 0.000 in 940.00 W/m2
13:49 105.0 °F 44.0 °F 29.7 in WSW 4 mph 7 mph 13% 0.000 in 933.00 W/m2
13:54 105.0 °F 44.0 °F 29.7 in SW 6 mph 3 mph 13% 0.000 in 930.00 W/m2
13:59 105.0 °F 42.0 °F 29.7 in WSW 2 mph 6 mph 12% 0.000 in 923.00 W/m2
14:04 105.0 °F 42.0 °F 29.7 in West 7 mph 7 mph 12% 0.000 in 914.00 W/m2
14:09 105.0 °F 44.0 °F 29.7 in SSW 4 mph 7 mph 13% 0.000 in 909.00 W/m2
14:14 105.0 °F 44.0 °F 29.7 in SE 4 mph 3 mph 13% 0.000 in 905.00 W/m2
14:19 106.0 °F 47.0 °F 29.7 in East 6 mph 3 mph 14% 0.000 in 900.00 W/m2
14:24 106.0 °F 45.0 °F 29.7 in ESE 12 mph 6 mph 13% 0.000 in 895.00 W/m2
14:29 106.0 °F 45.0 °F 29.7 in SSW 13 mph 13 mph 13% 0.000 in 888.00 W/m2
14:34 107.0 °F 43.0 °F 29.7 in SW 6 mph 6 mph 12% 0.000 in 882.00 W/m2
14:39 107.0 °F 44.0 °F 29.7 in West 9 mph 8 mph 12% 0.000 in 874.00 W/m2
14:44 107.0 °F 46.0 °F 29.7 in West 9 mph 9 mph 13% 0.000 in 865.00 W/m2
14:49 107.0 °F 44.0 °F 29.7 in SSW 4 mph 9 mph 12% 0.000 in 854.00 W/m2
14:54 107.0 °F 41.0 °F 29.7 in SSE 7 mph 4 mph 11% 0.000 in 846.00 W/m2
14:59 107.0 °F 44.0 °F 29.7 in SSW 7 mph 7 mph 12% 0.000 in 837.00 W/m2
15:04 107.0 °F 43.0 °F 29.7 in SSW 6 mph 7 mph 12% 0.000 in 826.00 W/m2
15:09 107.0 °F 44.0 °F 29.7 in WSW 9 mph 6 mph 12% 0.000 in 816.00 W/m2
15:14 107.0 °F 41.0 °F 29.7 in SW 11 mph 9 mph 11% 0.000 in 810.00 W/m2
15:19 107.0 °F 46.0 °F 29.7 in South 9 mph 10 mph 13% 0.000 in 798.00 W/m2
15:24 107.0 °F 46.0 °F 29.7 in SW 6 mph 6 mph 13% 0.000 in 788.00 W/m2
15:29 107.0 °F 44.0 °F 29.7 in West 9 mph 7 mph 12% 0.000 in 775.00 W/m2
15:34 107.0 °F 42.0 °F 29.7 in SW 9 mph 9 mph 11% 0.000 in 766.00 W/m2
15:39 107.0 °F 42.0 °F 29.7 in SW 16 mph 9 mph 11% 0.000 in 751.00 W/m2
15:44 107.0 °F 41.0 °F 29.7 in WSW 16 mph 16 mph 11% 0.000 in 740.00 W/m2
15:49 107.0 °F 44.0 °F 29.7 in SSW 18 mph 11 mph 12% 0.000 in 729.00 W/m2
15:54 107.0 °F 41.0 °F 29.7 in SSW 10 mph 17 mph 11% 0.000 in 714.00 W/m2
15:59 107.0 °F 39.0 °F 29.7 in SSW 6 mph 7 mph 10% 0.000 in 703.00 W/m2
16:04 107.0 °F 42.0 °F 29.7 in SSW 6 mph 6 mph 11% 0.000 in 694.00 W/m2
16:09 107.0 °F 41.0 °F 29.7 in SSW 7 mph 6 mph 11% 0.000 in 680.00 W/m2
16:14 107.0 °F 39.0 °F 29.7 in SW 7 mph 7 mph 10% 0.000 in 666.00 W/m2
16:19 108.0 °F 39.0 °F 29.7 in SSE 7 mph 7 mph 10% 0.000 in 654.00 W/m2
16:24 108.0 °F 37.0 °F 29.7 in WSW 7 mph 7 mph 9% 0.000 in 642.00 W/m2
16:29 108.0 °F 37.0 °F 29.7 in SW 11 mph 8 mph 9% 0.000 in 629.00 W/m2
16:34 108.0 °F 44.0 °F 29.7 in SW 7 mph 10 mph 12% 0.000 in 613.00 W/m2
16:39 108.0 °F 42.0 °F 29.7 in SW 11 mph 6 mph 11% 0.000 in 596.00 W/m2
16:44 108.0 °F 37.0 °F 29.7 in SW 9 mph 10 mph 9% 0.000 in 582.00 W/m2
16:49 108.0 °F 39.0 °F 29.7 in South 6 mph 9 mph 10% 0.000 in 570.00 W/m2
16:54 108.0 °F 39.0 °F 29.7 in SSW 7 mph 6 mph 10% 0.000 in 554.00 W/m2
16:59 108.0 °F 42.0 °F 29.7 in WSW 6 mph 7 mph 11% 0.000 in 540.00 W/m2
17:04 108.0 °F 42.0 °F 29.7 in South 4 mph 6 mph 11% 0.000 in 527.00 W/m2
17:09 108.0 °F 40.0 °F 29.7 in WSW 4 mph 3 mph 10% 0.000 in 512.00 W/m2
17:14 108.0 °F 37.0 °F 29.7 in SSW 7 mph 4 mph 9% 0.000 in 496.00 W/m2
17:19 108.0 °F 37.0 °F 29.7 in SW 7 mph 6 mph 9% 0.000 in 480.00 W/m2
17:24 108.0 °F 40.0 °F 29.7 in SW 2 mph 7 mph 10% 0.000 in 464.00 W/m2
17:29 108.0 °F 42.0 °F 29.7 in SSW 2 mph 2 mph 11% 0.000 in 446.00 W/m2
17:34 108.0 °F 42.0 °F 29.7 in SSE 4 mph 2 mph 11% 0.000 in 434.00 W/m2
17:39 108.0 °F 42.0 °F 29.7 in South 13 mph 6 mph 11% 0.000 in 418.00 W/m2
17:43 108.0 °F 34.0 °F 29.7 in SSW 7 mph 13 mph 8% 0.000 in 401.00 W/m2
17:49 108.0 °F 37.0 °F 29.7 in WSW 7 mph 7 mph 9% 0.000 in 383.00 W/m2
17:54 108.0 °F 37.0 °F 29.7 in SW 4 mph 7 mph 9% 0.000 in 367.00 W/m2
17:59 107.0 °F 36.0 °F 29.7 in SW 4 mph 3 mph 9% 0.000 in 352.00 W/m2
18:04 107.0 °F 39.0 °F 29.7 in SSW 6 mph 3 mph 10% 0.000 in 292.00 W/m2
18:09 107.0 °F 41.0 °F 29.7 in SSW 4 mph 6 mph 11% 0.000 in 167.00 W/m2
18:14 105.0 °F 46.0 °F 29.7 in SW 4 mph 3 mph 14% 0.000 in 56.00 W/m2
18:19 105.0 °F 46.0 °F 29.7 in SSW 2 mph 2 mph 14% 0.000 in 53.00 W/m2
18:24 104.0 °F 43.0 °F 29.7 in SSW 2 mph 2 mph 13% 0.000 in 47.00 W/m2
18:29 103.0 °F 42.0 °F 29.7 in SW 4 mph 3 mph 13% 0.000 in 44.00 W/m2
18:34 103.0 °F 40.0 °F 29.7 in SW 2 mph 3 mph 12% 0.000 in 40.00 W/m2
18:39 102.0 °F 44.0 °F 29.7 in SSW 4 mph 2 mph 14% 0.000 in 37.00 W/m2
18:44 102.0 °F 47.0 °F 29.7 in SSW 4 mph 3 mph 16% 0.000 in 39.00 W/m2
18:49 101.0 °F 43.0 °F 29.7 in SSW 2 mph 3 mph 14% 0.000 in 39.00 W/m2
18:54 101.0 °F 46.0 °F 29.7 in SSW 2 mph 2 mph 16% 0.000 in 42.00 W/m2
18:59 101.0 °F 48.0 °F 29.7 in SSW 4 mph 2 mph 17% 0.000 in 47.00 W/m2
19:04 100.0 °F 47.0 °F 29.7 in SSW 5 mph 3 mph 17% 0.000 in 47.00 W/m2
19:09 100.0 °F 42.0 °F 29.7 in SSW 6 mph 6 mph 14% 0.000 in 30.00 W/m2
El Dorado Weather
Compliments of Weather Underground - 2 mb